createdAt,value
2017-08-02T00:01:44.724Z,100929.41
2017-08-02T00:04:12.652Z,100927.58
2017-08-02T00:06:40.970Z,100928.75
2017-08-02T00:09:08.947Z,100918.47
2017-08-02T00:11:36.861Z,100931.83
2017-08-02T00:14:04.808Z,100928.50
2017-08-02T00:16:32.752Z,100915.23
2017-08-02T00:19:00.993Z,100912.72
2017-08-02T00:21:29.368Z,100905.20
2017-08-02T00:23:57.695Z,100901.28
2017-08-02T00:26:25.648Z,100901.09
2017-08-02T00:28:53.568Z,100896.14
2017-08-02T00:31:21.490Z,100890.63
2017-08-02T00:33:49.401Z,100893.48
2017-08-02T00:36:17.686Z,100901.28
2017-08-02T00:38:45.891Z,100898.64
2017-08-02T00:41:13.801Z,100910.03
2017-08-02T00:43:41.735Z,100922.02
2017-08-02T00:46:09.648Z,100922.00
2017-08-02T00:48:37.582Z,100921.62
2017-08-02T00:51:05.487Z,100928.00
2017-08-02T00:53:33.708Z,100933.19
2017-08-02T00:56:01.628Z,100920.95
2017-08-02T00:58:29.544Z,100923.03
2017-08-02T01:00:57.455Z,100915.02
2017-08-02T01:03:25.385Z,100909.95
2017-08-02T01:05:53.288Z,100904.91
2017-08-02T01:08:21.482Z,100914.17
2017-08-02T01:10:49.392Z,100900.86
2017-08-02T01:13:17.987Z,100895.28
2017-08-02T01:15:45.894Z,100895.58
2017-08-02T01:18:13.802Z,100907.13
2017-08-02T01:20:42.113Z,100907.48
2017-08-02T01:23:10.021Z,100902.50
2017-08-02T01:25:37.946Z,100909.27
2017-08-02T01:28:05.856Z,100911.70
2017-08-02T01:30:33.775Z,100915.44
2017-08-02T01:33:01.698Z,100913.67
2017-08-02T01:35:29.771Z,100930.48
2017-08-02T01:37:57.981Z,100933.14
2017-08-02T01:40:25.899Z,100932.73
2017-08-02T01:42:53.818Z,100925.59
2017-08-02T01:45:21.806Z,100930.44
2017-08-02T01:47:49.741Z,100927.16
2017-08-02T01:50:18.043Z,100931.13
2017-08-02T01:52:45.968Z,100928.69
2017-08-02T01:55:14.623Z,100931.05
2017-08-02T01:57:42.554Z,100931.44
2017-08-02T02:00:10.482Z,100934.89
2017-08-02T02:02:38.778Z,100937.47
2017-08-02T02:05:06.697Z,100945.56
2017-08-02T02:07:34.614Z,100936.36
2017-08-02T02:10:02.573Z,100938.61
2017-08-02T02:12:30.483Z,100942.73
2017-08-02T02:14:58.402Z,100943.55
2017-08-02T02:17:26.328Z,100942.13
2017-08-02T02:19:54.259Z,100947.98
2017-08-02T02:22:22.190Z,100951.20
2017-08-02T02:24:50.112Z,100953.84
2017-08-02T02:27:18.422Z,100949.16
2017-08-02T02:29:46.554Z,100950.66
2017-08-02T02:32:14.873Z,100950.31
2017-08-02T02:34:42.797Z,100951.68
2017-08-02T02:37:10.717Z,100941.44
2017-08-02T02:39:38.632Z,100943.23
2017-08-02T02:42:06.556Z,100950.13
2017-08-02T02:44:34.473Z,100947.30
2017-08-02T02:47:02.394Z,100947.98
2017-08-02T02:49:30.412Z,100955.94
2017-08-02T02:51:58.353Z,100960.19
2017-08-02T02:54:26.259Z,100957.09
2017-08-02T02:56:54.722Z,100958.20
2017-08-02T02:59:22.651Z,100962.10
2017-08-02T03:01:50.671Z,100961.34
2017-08-02T03:04:18.616Z,100962.06
2017-08-02T03:06:46.538Z,100961.98
2017-08-02T03:09:14.481Z,100965.57
2017-08-02T03:11:42.426Z,100960.75
2017-08-02T03:14:10.351Z,100970.92
2017-08-02T03:16:38.263Z,100974.88
2017-08-02T03:19:06.196Z,100973.75
2017-08-02T03:21:34.105Z,100975.33
2017-08-02T03:24:02.194Z,100972.84
2017-08-02T03:26:30.499Z,100969.07
2017-08-02T03:28:58.409Z,100975.16
2017-08-02T03:31:26.326Z,100978.93
2017-08-02T03:33:54.251Z,100983.49
2017-08-02T03:36:22.222Z,100987.38
2017-08-02T03:38:50.137Z,100991.15
2017-08-02T03:41:18.292Z,100984.38
2017-08-02T03:43:46.200Z,100989.00
2017-08-02T03:46:14.103Z,100985.91
2017-08-02T03:48:42.113Z,100982.28
2017-08-02T03:51:10.436Z,100991.12
2017-08-02T03:53:38.363Z,100992.00
2017-08-02T03:56:06.674Z,100994.02
2017-08-02T03:58:34.615Z,100994.45
2017-08-02T04:01:02.546Z,101002.00
2017-08-02T04:03:30.480Z,101006.20
2017-08-02T04:05:58.392Z,101012.02
2017-08-02T04:08:26.330Z,101017.55
2017-08-02T04:10:54.256Z,101026.59
2017-08-02T04:13:22.169Z,101030.45
2017-08-02T04:15:50.103Z,101026.40
2017-08-02T04:18:18.020Z,101029.60
2017-08-02T04:20:45.943Z,101032.06
2017-08-02T04:23:13.860Z,101032.55
2017-08-02T04:25:41.781Z,101035.81
2017-08-02T04:28:09.701Z,101035.41
2017-08-02T04:30:37.780Z,101034.64
2017-08-02T04:33:05.693Z,101038.33
2017-08-02T04:35:33.616Z,101039.09
2017-08-02T04:38:01.547Z,101049.13
2017-08-02T04:40:29.472Z,101043.74
2017-08-02T04:42:57.833Z,101044.11
2017-08-02T04:45:25.757Z,101046.38
2017-08-02T04:47:53.684Z,101048.23
2017-08-02T04:50:21.999Z,101052.21
2017-08-02T04:52:49.930Z,101046.61
2017-08-02T04:55:18.243Z,101048.91
2017-08-02T04:57:46.159Z,101036.13
2017-08-02T05:00:14.122Z,101029.34
2017-08-02T05:02:42.047Z,101031.98
2017-08-02T05:05:09.972Z,101028.77
2017-08-02T05:07:37.891Z,101027.05
2017-08-02T05:10:05.919Z,101020.73
2017-08-02T05:12:34.121Z,101021.65
2017-08-02T05:15:02.050Z,101020.53
2017-08-02T05:17:29.964Z,101025.69
2017-08-02T05:19:58.147Z,101028.30
2017-08-02T05:22:26.053Z,101038.41
2017-08-02T05:24:53.964Z,101047.22
2017-08-02T05:27:21.897Z,101040.44
2017-08-02T05:29:49.814Z,101045.28
2017-08-02T05:32:17.728Z,101045.98
2017-08-02T05:34:45.644Z,101055.62
2017-08-02T05:37:13.566Z,101049.73
2017-08-02T05:39:41.535Z,101044.72
2017-08-02T05:42:09.471Z,101043.47
2017-08-02T05:44:37.394Z,101042.67
2017-08-02T05:47:05.321Z,101046.79
2017-08-02T05:49:33.238Z,101042.03
2017-08-02T05:52:01.841Z,101034.48
2017-08-02T05:54:29.742Z,101033.61
2017-08-02T05:56:57.667Z,101036.41
2017-08-02T05:59:25.600Z,101040.00
2017-08-02T06:01:53.526Z,101038.61
2017-08-02T06:04:21.435Z,101032.56
2017-08-02T06:06:49.351Z,101025.86
2017-08-02T06:09:17.277Z,101027.14
2017-08-02T06:11:45.209Z,101033.75
2017-08-02T06:14:13.121Z,101035.80
2017-08-02T06:16:41.022Z,101041.28
2017-08-02T06:19:08.944Z,101044.05
2017-08-02T06:21:36.884Z,101052.96
2017-08-02T06:24:04.804Z,101057.20
2017-08-02T06:26:32.734Z,101056.05
2017-08-02T06:29:00.647Z,101060.77
2017-08-02T06:31:28.979Z,101066.34
2017-08-02T06:33:56.910Z,101070.48
2017-08-02T06:36:25.245Z,101064.23
2017-08-02T06:38:53.173Z,101070.94
2017-08-02T06:41:21.117Z,101069.71
2017-08-02T06:43:49.441Z,101077.22
2017-08-02T06:46:17.560Z,101082.88
2017-08-02T06:48:45.880Z,101086.03
2017-08-02T06:51:13.799Z,101086.24
2017-08-02T06:53:41.719Z,101080.23
2017-08-02T06:56:09.626Z,101080.09
2017-08-02T06:58:37.564Z,101084.37
2017-08-02T07:01:05.484Z,101091.63
2017-08-02T07:03:33.821Z,101106.88
2017-08-02T07:06:01.818Z,101105.80
2017-08-02T07:08:29.735Z,101104.23
2017-08-02T07:10:57.644Z,101109.48
2017-08-02T07:13:25.562Z,101113.02
2017-08-02T07:15:53.490Z,101107.67
2017-08-02T07:18:21.411Z,101111.95
2017-08-02T07:20:49.329Z,101114.03
2017-08-02T07:23:17.613Z,101123.25
2017-08-02T07:25:45.536Z,101117.71
2017-08-02T07:28:13.561Z,101108.42
2017-08-02T07:30:41.901Z,101106.08
2017-08-02T07:33:09.844Z,101105.29
2017-08-02T07:35:37.865Z,101091.08
2017-08-02T07:38:05.778Z,101101.89
2017-08-02T07:40:33.719Z,101100.47
2017-08-02T07:43:02.037Z,101106.60
2017-08-02T07:45:29.965Z,101108.11
2017-08-02T07:47:58.276Z,101108.33
2017-08-02T07:50:26.398Z,101104.81
2017-08-02T07:52:54.306Z,101115.41
2017-08-02T07:55:22.231Z,101117.76
2017-08-02T07:57:50.152Z,101122.45
2017-08-02T08:00:18.060Z,101125.67
2017-08-02T08:02:45.984Z,101127.95
2017-08-02T08:05:13.908Z,101136.98
2017-08-02T08:07:41.995Z,101139.59
2017-08-02T08:10:10.615Z,101135.36
2017-08-02T08:12:38.565Z,101128.83
2017-08-02T08:15:06.513Z,101136.31
2017-08-02T08:17:34.415Z,101140.45
2017-08-02T08:20:02.345Z,101149.34
2017-08-02T08:22:30.254Z,101151.48
2017-08-02T08:24:58.186Z,101154.28
2017-08-02T08:27:26.153Z,101147.48
2017-08-02T08:29:54.895Z,101151.28
2017-08-02T08:32:22.856Z,101153.48
2017-08-02T08:34:50.890Z,101157.45
2017-08-02T08:37:19.225Z,101160.45
2017-08-02T08:39:47.143Z,101168.95
2017-08-02T08:42:15.468Z,101167.19
2017-08-02T08:44:44.649Z,101162.80
2017-08-02T08:47:12.583Z,101160.34
2017-08-02T08:49:40.897Z,101169.41
2017-08-02T08:52:08.825Z,101167.38
2017-08-02T08:54:36.728Z,101165.11
2017-08-02T08:57:05.055Z,101175.31
2017-08-02T08:59:32.972Z,101187.40
2017-08-02T09:02:00.885Z,101187.07
2017-08-02T09:04:28.819Z,101184.93
2017-08-02T09:06:56.725Z,101184.62
2017-08-02T09:09:24.720Z,101185.98
2017-08-02T09:11:53.022Z,101180.19
2017-08-02T09:14:20.949Z,101176.13
2017-08-02T09:16:48.856Z,101177.30
2017-08-02T09:19:16.775Z,101178.38
2017-08-02T09:21:44.694Z,101176.55
2017-08-02T09:24:12.931Z,101177.69
2017-08-02T09:26:40.860Z,101171.93
2017-08-02T09:29:08.776Z,101176.64
2017-08-02T09:31:36.699Z,101187.88
2017-08-02T09:34:04.716Z,101188.06
2017-08-02T09:36:32.648Z,101196.97
2017-08-02T09:39:00.567Z,101192.20
2017-08-02T09:41:28.898Z,101187.20
2017-08-02T09:43:56.799Z,101193.84
2017-08-02T09:46:24.728Z,101192.59
2017-08-02T09:48:52.643Z,101198.86
2017-08-02T09:51:21.081Z,101202.23
2017-08-02T09:53:48.990Z,101195.53
2017-08-02T09:56:17.300Z,101186.34
2017-08-02T09:58:45.232Z,101178.73
2017-08-02T10:01:13.553Z,101190.45
2017-08-02T10:03:41.467Z,101185.79
2017-08-02T10:06:09.376Z,101183.83
2017-08-02T10:08:37.291Z,101183.00
2017-08-02T10:11:05.207Z,101186.34
2017-08-02T10:13:33.864Z,101187.59
2017-08-02T10:16:01.787Z,101184.26
2017-08-02T10:18:29.693Z,101184.16
2017-08-02T10:20:57.625Z,101182.94
2017-08-02T10:23:25.554Z,101182.64
2017-08-02T10:25:53.878Z,101181.87
2017-08-02T10:28:21.800Z,101179.37
2017-08-02T10:30:50.120Z,101182.27
2017-08-02T10:33:18.036Z,101184.03
2017-08-02T10:35:45.984Z,101171.57
2017-08-02T10:38:13.895Z,101175.86
2017-08-02T10:40:42.360Z,101175.45
2017-08-02T10:43:10.688Z,101169.26
2017-08-02T10:45:38.606Z,101170.73
2017-08-02T10:48:06.919Z,101167.98
2017-08-02T10:50:34.833Z,101179.27
2017-08-02T10:53:02.751Z,101175.84
2017-08-02T10:55:30.664Z,101175.66
2017-08-02T10:57:58.604Z,101179.35
2017-08-02T11:00:26.857Z,101177.05
2017-08-02T11:02:54.772Z,101169.96
2017-08-02T11:05:22.701Z,101167.86
2017-08-02T11:07:50.835Z,101157.56
2017-08-02T11:10:18.807Z,101162.47
2017-08-02T11:12:46.736Z,101156.72
2017-08-02T11:15:14.661Z,101157.56
2017-08-02T11:17:42.962Z,101162.92
2017-08-02T11:20:11.720Z,101166.59
2017-08-02T11:22:40.128Z,101172.78
2017-08-02T11:25:08.061Z,101162.83
2017-08-02T11:27:35.988Z,101161.33
2017-08-02T11:30:04.000Z,101156.22
2017-08-02T11:32:31.925Z,101167.14
2017-08-02T11:35:00.239Z,101165.58
2017-08-02T11:37:28.167Z,101168.95
2017-08-02T11:39:56.084Z,101164.31
2017-08-02T11:42:24.037Z,101158.27
2017-08-02T11:44:51.934Z,101160.03
2017-08-02T11:47:20.254Z,101156.71
2017-08-02T11:49:48.168Z,101160.27
2017-08-02T11:52:16.223Z,101165.45
2017-08-02T11:54:44.145Z,101157.33
2017-08-02T11:57:12.065Z,101155.94
2017-08-02T11:59:40.200Z,101151.64
2017-08-02T12:02:08.115Z,101148.22
2017-08-02T12:04:36.041Z,101152.53
2017-08-02T12:07:03.949Z,101154.76
2017-08-02T12:09:31.878Z,101155.98
2017-08-02T12:11:59.841Z,101159.53
2017-08-02T12:14:27.767Z,101154.57
2017-08-02T12:16:55.673Z,101144.77
2017-08-02T12:19:23.801Z,101141.01
2017-08-02T12:21:51.710Z,101140.66
2017-08-02T12:24:19.624Z,101128.87
2017-08-02T12:26:47.571Z,101135.08
2017-08-02T12:29:15.485Z,101141.22
2017-08-02T12:31:43.415Z,101145.41
2017-08-02T12:34:11.325Z,101153.81
2017-08-02T12:36:40.014Z,101152.91
2017-08-02T12:39:07.925Z,101147.84
2017-08-02T12:41:35.840Z,101144.39
2017-08-02T12:44:03.768Z,101147.48
2017-08-02T12:46:31.780Z,101148.05
2017-08-02T12:48:59.696Z,101147.68
2017-08-02T12:51:27.599Z,101152.36
2017-08-02T12:53:55.512Z,101152.63
2017-08-02T12:56:23.424Z,101145.99
2017-08-02T12:58:51.436Z,101147.86
2017-08-02T13:01:19.756Z,101142.36
2017-08-02T13:03:47.830Z,101137.25
2017-08-02T13:06:15.754Z,101135.18
2017-08-02T13:08:44.064Z,101142.13
2017-08-02T13:11:11.983Z,101135.16
2017-08-02T13:13:39.890Z,101121.71
2017-08-02T13:16:07.825Z,101117.22
2017-08-02T13:18:35.729Z,101126.84
2017-08-02T13:21:03.675Z,101133.04
2017-08-02T13:23:31.981Z,101131.76
2017-08-02T13:25:59.910Z,101133.94
2017-08-02T13:28:27.837Z,101131.01
2017-08-02T13:30:55.943Z,101125.33
2017-08-02T13:33:23.870Z,101114.51
2017-08-02T13:35:51.800Z,101117.75
2017-08-02T13:38:20.125Z,101118.77
2017-08-02T13:40:48.030Z,101110.30
2017-08-02T13:43:15.959Z,101112.85
2017-08-02T13:45:43.872Z,101121.47
2017-08-02T13:48:11.799Z,101119.36
2017-08-02T13:50:39.738Z,101115.69
2017-08-02T13:53:07.651Z,101119.07
2017-08-02T13:55:35.564Z,101123.34
2017-08-02T13:58:04.016Z,101111.28
2017-08-02T14:00:31.946Z,101116.75
2017-08-02T14:03:00.229Z,101116.64
2017-08-02T14:05:28.154Z,101105.98
2017-08-02T14:07:56.527Z,101116.06
2017-08-02T14:10:24.851Z,101107.02
2017-08-02T14:12:52.764Z,101113.77
2017-08-02T14:15:20.676Z,101118.12
2017-08-02T14:17:48.577Z,101125.16
2017-08-02T14:20:16.677Z,101121.59
2017-08-02T14:22:44.584Z,101109.72
2017-08-02T14:25:12.501Z,101105.15
2017-08-02T14:27:40.433Z,101102.64
2017-08-02T14:30:08.353Z,101099.34
2017-08-02T14:32:36.743Z,101088.41
2017-08-02T14:35:05.089Z,101081.92
2017-08-02T14:37:33.007Z,101078.90
2017-08-02T14:40:01.038Z,101063.85
2017-08-02T14:42:28.965Z,101071.16
2017-08-02T14:44:56.889Z,101087.87
2017-08-02T14:47:25.573Z,101087.42
2017-08-02T14:49:53.492Z,101074.61
2017-08-02T14:52:21.418Z,101078.18
2017-08-02T14:54:49.745Z,101073.27
2017-08-02T14:57:17.699Z,101078.17
2017-08-02T14:59:45.614Z,101065.98
2017-08-02T15:02:13.533Z,101062.47
2017-08-02T15:04:41.456Z,101055.58
2017-08-02T15:07:09.384Z,101047.33
2017-08-02T15:09:37.445Z,101041.77
2017-08-02T15:12:05.352Z,101038.08
2017-08-02T15:14:33.262Z,101032.88
2017-08-02T15:17:01.200Z,101038.88
2017-08-02T15:19:29.198Z,101038.99
2017-08-02T15:21:57.503Z,101035.98
2017-08-02T15:24:25.528Z,101031.85
2017-08-02T15:26:53.444Z,101032.08
2017-08-02T15:29:21.362Z,101032.54
2017-08-02T15:31:49.735Z,101026.20
2017-08-02T15:34:17.659Z,101020.66
2017-08-02T15:36:45.600Z,101019.74
2017-08-02T15:39:13.903Z,101020.48
2017-08-02T15:41:41.980Z,101016.71
2017-08-02T15:44:09.884Z,101014.40
2017-08-02T15:46:37.791Z,101015.81
2017-08-02T15:49:05.709Z,101011.45
2017-08-02T15:51:33.629Z,101012.77
2017-08-02T15:54:01.557Z,101006.41
2017-08-02T15:56:29.471Z,100996.21
2017-08-02T15:58:57.390Z,100991.49
2017-08-02T16:01:25.288Z,100992.27
2017-08-02T16:03:53.612Z,100993.84
2017-08-02T16:08:56.308Z,100983.81
2017-08-02T16:11:24.234Z,100983.26
2017-08-02T16:13:52.558Z,100988.94
2017-08-02T16:16:20.479Z,100981.48
2017-08-02T16:18:49.025Z,100979.27
2017-08-02T16:21:16.932Z,100979.58
2017-08-02T16:23:44.882Z,100977.54
2017-08-02T16:26:12.816Z,100973.98
2017-08-02T16:28:40.722Z,100982.70
2017-08-02T16:31:08.665Z,100978.59
2017-08-02T16:33:36.586Z,100972.31
2017-08-02T16:36:04.521Z,100967.38
2017-08-02T16:39:38.232Z,100968.13
2017-08-02T16:42:06.159Z,100958.87
2017-08-02T16:44:34.084Z,100965.58
2017-08-02T16:47:02.559Z,100967.27
2017-08-02T16:49:30.475Z,100964.30
2017-08-02T16:51:58.378Z,100958.80
2017-08-02T16:54:26.598Z,100964.86
2017-08-02T16:56:54.527Z,100961.63
2017-08-02T16:59:22.463Z,100952.54
2017-08-02T17:01:50.405Z,100954.86
2017-08-02T17:04:18.323Z,100952.58
2017-08-02T17:06:46.243Z,100954.04
2017-08-02T17:09:14.386Z,100958.47
2017-08-02T17:11:42.309Z,100960.77
2017-08-02T17:14:10.372Z,100959.47
2017-08-02T17:16:38.310Z,100956.85
2017-08-02T17:19:06.644Z,100958.31
2017-08-02T17:21:34.587Z,100951.09
2017-08-02T17:24:02.501Z,100948.86
2017-08-02T17:26:30.431Z,100949.25
2017-08-02T17:28:58.352Z,100941.79
2017-08-02T17:31:26.559Z,100955.43
2017-08-02T17:33:54.488Z,100953.30
2017-08-02T17:36:22.510Z,100952.91
2017-08-02T17:38:50.444Z,100952.73
2017-08-02T17:41:19.015Z,100953.98
2017-08-02T17:43:46.923Z,100957.06
2017-08-02T17:46:14.840Z,100953.53
2017-08-02T17:48:42.759Z,100950.84
2017-08-02T17:51:10.668Z,100948.66
2017-08-02T17:53:38.596Z,100951.50
2017-08-02T17:56:06.521Z,100949.92
2017-08-02T17:58:34.796Z,100955.67
2017-08-02T18:01:02.727Z,100952.79
2017-08-02T18:03:30.648Z,100967.89
2017-08-02T18:05:58.960Z,100978.72
2017-08-02T18:08:26.878Z,100985.32
2017-08-02T18:10:54.812Z,100987.85
2017-08-02T18:13:22.728Z,101005.11
2017-08-02T18:15:51.058Z,101005.08
2017-08-02T18:18:18.989Z,101016.87
2017-08-02T18:20:46.903Z,101012.64
2017-08-02T18:23:14.814Z,101005.53
2017-08-02T18:25:43.174Z,100993.03
2017-08-02T18:28:11.107Z,101004.94
2017-08-02T18:30:39.037Z,101012.00
2017-08-02T18:33:07.343Z,101027.92
2017-08-02T18:35:35.475Z,101030.42
2017-08-02T18:38:03.389Z,101028.35
2017-08-02T18:40:31.316Z,101023.80
2017-08-02T18:42:59.244Z,101018.69
2017-08-02T18:45:27.154Z,101011.09
2017-08-02T18:47:55.573Z,101007.98
2017-08-02T18:50:23.483Z,101011.53
2017-08-02T18:52:51.590Z,101014.66
2017-08-02T18:55:19.524Z,101006.16
2017-08-02T18:57:47.426Z,101006.22
2017-08-02T19:00:15.770Z,101001.25
2017-08-02T19:02:43.687Z,101015.63
2017-08-02T19:05:11.615Z,101025.22
2017-08-02T19:07:39.538Z,101022.66
2017-08-02T19:10:07.506Z,101023.84
2017-08-02T19:12:35.421Z,101018.39
2017-08-02T19:15:03.497Z,101025.23
2017-08-02T19:17:31.416Z,101026.64
2017-08-02T19:19:59.343Z,101020.59
2017-08-02T19:22:27.262Z,101024.38
2017-08-02T19:24:55.173Z,101021.34
2017-08-02T19:27:23.247Z,101022.80
2017-08-02T19:29:51.164Z,101026.21
2017-08-02T19:32:19.086Z,101031.06
2017-08-02T19:34:47.050Z,101032.99
2017-08-02T19:37:14.969Z,101029.86
2017-08-02T19:39:42.887Z,101025.19
2017-08-02T19:42:10.816Z,101025.05
2017-08-02T19:44:38.778Z,101015.23
2017-08-02T19:47:06.689Z,101017.38
2017-08-02T19:49:34.611Z,101027.05
2017-08-02T19:52:02.539Z,101022.00
2017-08-02T19:54:30.597Z,101021.17
2017-08-02T19:56:58.575Z,101017.64
2017-08-02T19:59:26.483Z,101017.92
2017-08-02T20:01:54.421Z,101022.14
2017-08-02T20:04:22.749Z,101022.47
2017-08-02T20:06:50.861Z,101023.89
2017-08-02T20:09:18.770Z,101016.17
2017-08-02T20:11:46.673Z,101018.30
2017-08-02T20:14:14.600Z,101011.27
2017-08-02T20:16:42.502Z,101011.84
2017-08-02T20:19:10.438Z,101008.86
2017-08-02T20:21:38.344Z,101010.78
2017-08-02T20:24:06.394Z,101008.02
2017-08-02T20:26:34.312Z,101005.52
2017-08-02T20:29:02.226Z,100999.11
2017-08-02T20:31:30.148Z,101004.70
2017-08-02T20:33:58.055Z,101009.89
2017-08-02T20:36:25.993Z,101008.70
2017-08-02T20:38:54.316Z,101006.70
2017-08-02T20:41:22.284Z,101009.10
2017-08-02T20:43:50.182Z,101011.77
2017-08-02T20:46:18.271Z,101004.75
2017-08-02T20:48:46.192Z,101003.66
2017-08-02T20:51:14.116Z,101001.48
2017-08-02T20:53:42.034Z,100997.61
2017-08-02T20:56:09.956Z,100995.70
2017-08-02T20:58:37.874Z,100996.91
2017-08-02T21:01:05.798Z,101000.48
2017-08-02T21:03:34.273Z,101002.31
2017-08-02T21:06:02.362Z,101007.04
2017-08-02T21:08:30.673Z,101007.70
2017-08-02T21:10:58.591Z,100999.61
2017-08-02T21:13:26.503Z,101001.71
2017-08-02T21:15:54.540Z,100998.25
2017-08-02T21:18:22.465Z,101006.01
2017-08-02T21:20:50.376Z,101004.41
2017-08-02T21:23:18.700Z,100997.31
2017-08-02T21:25:46.626Z,100996.34
2017-08-02T21:28:14.588Z,100997.05
2017-08-02T21:30:42.902Z,101008.87
2017-08-02T21:33:10.834Z,101006.27
2017-08-02T21:35:39.159Z,101015.06
2017-08-02T21:38:07.090Z,101011.52
2017-08-02T21:40:35.404Z,101011.88
2017-08-02T21:43:03.670Z,101023.16
2017-08-02T21:45:31.597Z,101021.43
2017-08-02T21:47:59.512Z,101022.22
2017-08-02T21:50:27.437Z,101028.29
2017-08-02T21:52:55.748Z,101030.41
2017-08-02T21:55:23.673Z,101031.48
2017-08-02T21:57:51.614Z,101029.81
2017-08-02T22:00:19.530Z,101028.62
2017-08-02T22:02:47.906Z,101034.48
2017-08-02T22:05:16.233Z,101036.11
2017-08-02T22:07:44.157Z,101034.38
2017-08-02T22:10:13.076Z,101039.45
2017-08-02T22:12:41.006Z,101035.05
2017-08-02T22:15:08.937Z,101040.00
2017-08-02T22:17:36.852Z,101037.59
2017-08-02T22:20:05.276Z,101040.56
2017-08-02T22:22:33.196Z,101035.02
2017-08-02T22:25:01.491Z,101029.05
2017-08-02T22:27:29.804Z,101025.05
2017-08-02T22:29:57.714Z,101023.23
2017-08-02T22:32:25.634Z,101014.02
2017-08-02T22:34:53.534Z,101026.00
2017-08-02T22:37:21.641Z,101025.55
2017-08-02T22:39:49.957Z,101011.80
2017-08-02T22:42:17.877Z,101006.80
2017-08-02T22:44:45.810Z,101003.23
2017-08-02T22:47:13.732Z,100996.19
2017-08-02T22:49:41.655Z,101008.08
2017-08-02T22:52:09.574Z,101000.27
2017-08-02T22:54:37.501Z,101001.52
2017-08-02T22:57:05.411Z,101006.01
2017-08-02T22:59:33.665Z,101002.77
2017-08-02T23:02:01.969Z,101000.02
2017-08-02T23:04:29.882Z,100996.48
2017-08-02T23:06:58.352Z,101005.84
2017-08-02T23:09:26.269Z,101005.02
2017-08-02T23:11:54.978Z,100999.20
2017-08-02T23:14:22.918Z,100990.28
2017-08-02T23:16:51.236Z,100977.98
2017-08-02T23:19:19.150Z,100975.59
2017-08-02T23:21:47.226Z,100979.70
2017-08-02T23:24:15.146Z,100989.36
2017-08-02T23:26:43.060Z,100989.16
2017-08-02T23:29:10.983Z,100989.80
2017-08-02T23:31:38.896Z,100999.34
2017-08-02T23:34:06.829Z,100994.62
2017-08-02T23:36:34.750Z,100997.67
2017-08-02T23:39:03.072Z,100999.59
2017-08-02T23:41:30.988Z,100982.41
2017-08-02T23:43:58.921Z,100976.25
2017-08-02T23:46:26.835Z,100979.19
2017-08-02T23:48:55.167Z,100965.47
2017-08-02T23:51:23.090Z,100957.84
2017-08-02T23:53:51.424Z,100949.97
2017-08-02T23:56:19.343Z,100957.30
2017-08-02T23:58:47.661Z,100950.13
